sensor_id;sensor_type;location;lat;lon;timestamp;temperature;humidity
78788;DHT22;68131;52.508;5.502;2023-04-29T00:00:09;11.60;73.40
78788;DHT22;68131;52.508;5.502;2023-04-29T00:02:38;11.60;73.20
78788;DHT22;68131;52.508;5.502;2023-04-29T00:05:10;11.50;73.30
78788;DHT22;68131;52.508;5.502;2023-04-29T00:07:39;11.40;73.50
78788;DHT22;68131;52.508;5.502;2023-04-29T00:10:10;11.50;73.50
78788;DHT22;68131;52.508;5.502;2023-04-29T00:12:40;11.50;73.50
78788;DHT22;68131;52.508;5.502;2023-04-29T00:15:10;11.40;73.30
78788;DHT22;68131;52.508;5.502;2023-04-29T00:17:39;11.40;73.20
78788;DHT22;68131;52.508;5.502;2023-04-29T00:20:12;11.30;73.40
78788;DHT22;68131;52.508;5.502;2023-04-29T00:22:41;11.30;73.50
78788;DHT22;68131;52.508;5.502;2023-04-29T00:25:10;11.40;73.40
78788;DHT22;68131;52.508;5.502;2023-04-29T00:27:39;11.40;73.30
78788;DHT22;68131;52.508;5.502;2023-04-29T00:30:09;11.40;73.10
78788;DHT22;68131;52.508;5.502;2023-04-29T00:32:39;11.40;73.10
78788;DHT22;68131;52.508;5.502;2023-04-29T00:35:11;11.40;73.10
78788;DHT22;68131;52.508;5.502;2023-04-29T00:37:41;11.40;73.10
78788;DHT22;68131;52.508;5.502;2023-04-29T00:40:11;11.50;73.10
78788;DHT22;68131;52.508;5.502;2023-04-29T00:42:41;11.50;73.00
78788;DHT22;68131;52.508;5.502;2023-04-29T00:45:11;11.50;72.90
78788;DHT22;68131;52.508;5.502;2023-04-29T00:47:40;11.50;72.90
78788;DHT22;68131;52.508;5.502;2023-04-29T00:50:12;11.50;72.90
78788;DHT22;68131;52.508;5.502;2023-04-29T00:52:42;11.50;72.90
78788;DHT22;68131;52.508;5.502;2023-04-29T00:55:12;11.40;72.80
78788;DHT22;68131;52.508;5.502;2023-04-29T00:57:41;11.40;72.70
78788;DHT22;68131;52.508;5.502;2023-04-29T01:00:13;11.40;72.80
78788;DHT22;68131;52.508;5.502;2023-04-29T01:02:43;11.40;72.90
78788;DHT22;68131;52.508;5.502;2023-04-29T01:05:15;11.50;72.90
78788;DHT22;68131;52.508;5.502;2023-04-29T01:07:51;11.50;72.90
78788;DHT22;68131;52.508;5.502;2023-04-29T01:10:27;11.50;73.00
78788;DHT22;68131;52.508;5.502;2023-04-29T01:13:04;11.50;73.00
78788;DHT22;68131;52.508;5.502;2023-04-29T01:15:40;11.50;73.00
78788;DHT22;68131;52.508;5.502;2023-04-29T01:18:19;11.50;72.90
78788;DHT22;68131;52.508;5.502;2023-04-29T01:20:56;11.50;73.00
78788;DHT22;68131;52.508;5.502;2023-04-29T01:23:29;11.50;73.00
78788;DHT22;68131;52.508;5.502;2023-04-29T01:25:58;11.60;73.00
78788;DHT22;68131;52.508;5.502;2023-04-29T01:29:06;11.60;72.90
78788;DHT22;68131;52.508;5.502;2023-04-29T01:31:48;11.50;73.00
78788;DHT22;68131;52.508;5.502;2023-04-29T01:34:24;11.50;73.20
78788;DHT22;68131;52.508;5.502;2023-04-29T01:37:01;11.50;73.20
78788;DHT22;68131;52.508;5.502;2023-04-29T01:39:44;11.40;73.40
78788;DHT22;68131;52.508;5.502;2023-04-29T01:42:18;11.40;73.60
78788;DHT22;68131;52.508;5.502;2023-04-29T01:44:52;11.40;73.80
78788;DHT22;68131;52.508;5.502;2023-04-29T01:47:24;11.30;73.80
78788;DHT22;68131;52.508;5.502;2023-04-29T01:49:54;11.30;73.80
78788;DHT22;68131;52.508;5.502;2023-04-29T01:52:23;11.30;73.80
78788;DHT22;68131;52.508;5.502;2023-04-29T01:54:59;11.30;73.80
78788;DHT22;68131;52.508;5.502;2023-04-29T01:57:37;11.30;73.80
78788;DHT22;68131;52.508;5.502;2023-04-29T02:00:15;11.30;73.90
78788;DHT22;68131;52.508;5.502;2023-04-29T02:02:50;11.30;73.90
78788;DHT22;68131;52.508;5.502;2023-04-29T02:05:35;11.20;74.00
78788;DHT22;68131;52.508;5.502;2023-04-29T02:08:05;11.30;74.00
78788;DHT22;68131;52.508;5.502;2023-04-29T02:10:51;11.30;73.90
78788;DHT22;68131;52.508;5.502;2023-04-29T02:13:32;11.30;73.90
78788;DHT22;68131;52.508;5.502;2023-04-29T02:16:08;11.20;73.90
78788;DHT22;68131;52.508;5.502;2023-04-29T02:18:41;11.30;73.90
78788;DHT22;68131;52.508;5.502;2023-04-29T02:21:10;11.30;73.70
78788;DHT22;68131;52.508;5.502;2023-04-29T02:23:39;11.30;73.70
78788;DHT22;68131;52.508;5.502;2023-04-29T02:26:11;11.30;73.70
78788;DHT22;68131;52.508;5.502;2023-04-29T02:28:40;11.20;73.70
78788;DHT22;68131;52.508;5.502;2023-04-29T02:31:09;11.30;73.80
78788;DHT22;68131;52.508;5.502;2023-04-29T02:33:38;11.20;73.60
78788;DHT22;68131;52.508;5.502;2023-04-29T02:36:09;11.20;73.60
78788;DHT22;68131;52.508;5.502;2023-04-29T02:38:38;11.20;73.60
78788;DHT22;68131;52.508;5.502;2023-04-29T02:41:12;11.10;73.70
78788;DHT22;68131;52.508;5.502;2023-04-29T02:43:43;11.10;73.70
78788;DHT22;68131;52.508;5.502;2023-04-29T02:46:14;11.10;73.70
78788;DHT22;68131;52.508;5.502;2023-04-29T02:48:44;11.10;73.60
78788;DHT22;68131;52.508;5.502;2023-04-29T02:51:14;11.00;73.70
78788;DHT22;68131;52.508;5.502;2023-04-29T02:53:43;11.10;73.80
78788;DHT22;68131;52.508;5.502;2023-04-29T02:56:14;11.10;73.80
78788;DHT22;68131;52.508;5.502;2023-04-29T02:58:43;11.20;73.70
78788;DHT22;68131;52.508;5.502;2023-04-29T03:01:13;11.20;73.70
78788;DHT22;68131;52.508;5.502;2023-04-29T03:03:42;11.20;73.70
78788;DHT22;68131;52.508;5.502;2023-04-29T03:06:11;11.10;73.80
78788;DHT22;68131;52.508;5.502;2023-04-29T03:08:41;11.20;74.00
78788;DHT22;68131;52.508;5.502;2023-04-29T03:11:10;11.10;74.00
78788;DHT22;68131;52.508;5.502;2023-04-29T03:13:41;11.10;74.10
78788;DHT22;68131;52.508;5.502;2023-04-29T03:16:11;11.10;74.10
78788;DHT22;68131;52.508;5.502;2023-04-29T03:18:42;11.10;74.10
78788;DHT22;68131;52.508;5.502;2023-04-29T03:21:11;11.10;74.10
78788;DHT22;68131;52.508;5.502;2023-04-29T03:23:40;11.10;74.10
78788;DHT22;68131;52.508;5.502;2023-04-29T03:26:13;11.10;74.20
78788;DHT22;68131;52.508;5.502;2023-04-29T03:28:44;11.10;73.90
78788;DHT22;68131;52.508;5.502;2023-04-29T03:31:13;11.10;73.90
78788;DHT22;68131;52.508;5.502;2023-04-29T03:33:43;11.10;74.00
78788;DHT22;68131;52.508;5.502;2023-04-29T03:36:12;11.10;73.80
78788;DHT22;68131;52.508;5.502;2023-04-29T03:38:58;11.10;73.90
78788;DHT22;68131;52.508;5.502;2023-04-29T03:41:28;11.10;73.80
78788;DHT22;68131;52.508;5.502;2023-04-29T03:44:00;11.10;73.70
78788;DHT22;68131;52.508;5.502;2023-04-29T03:46:29;11.10;73.80
78788;DHT22;68131;52.508;5.502;2023-04-29T03:49:00;11.10;73.80
78788;DHT22;68131;52.508;5.502;2023-04-29T03:51:30;11.10;73.70
78788;DHT22;68131;52.508;5.502;2023-04-29T03:54:08;11.00;73.70
78788;DHT22;68131;52.508;5.502;2023-04-29T03:56:38;11.00;73.90
78788;DHT22;68131;52.508;5.502;2023-04-29T03:59:09;11.00;73.90
78788;DHT22;68131;52.508;5.502;2023-04-29T04:01:40;11.10;73.80
78788;DHT22;68131;52.508;5.502;2023-04-29T04:04:10;11.00;73.90
78788;DHT22;68131;52.508;5.502;2023-04-29T04:06:44;11.10;73.90
78788;DHT22;68131;52.508;5.502;2023-04-29T04:09:17;11.10;73.90
78788;DHT22;68131;52.508;5.502;2023-04-29T04:11:46;11.10;74.00
78788;DHT22;68131;52.508;5.502;2023-04-29T04:14:18;11.10;73.90
78788;DHT22;68131;52.508;5.502;2023-04-29T04:16:47;11.10;74.00
78788;DHT22;68131;52.508;5.502;2023-04-29T04:19:16;11.10;74.00
78788;DHT22;68131;52.508;5.502;2023-04-29T04:21:45;11.00;74.20
78788;DHT22;68131;52.508;5.502;2023-04-29T04:24:15;11.00;74.10
78788;DHT22;68131;52.508;5.502;2023-04-29T04:26:44;11.00;74.20
78788;DHT22;68131;52.508;5.502;2023-04-29T04:29:31;11.00;73.90
78788;DHT22;68131;52.508;5.502;2023-04-29T04:32:06;11.00;73.80
78788;DHT22;68131;52.508;5.502;2023-04-29T04:34:38;10.90;73.60
78788;DHT22;68131;52.508;5.502;2023-04-29T04:37:07;10.90;73.50
78788;DHT22;68131;52.508;5.502;2023-04-29T04:39:38;10.90;73.50
78788;DHT22;68131;52.508;5.502;2023-04-29T04:42:11;10.90;73.60
78788;DHT22;68131;52.508;5.502;2023-04-29T04:44:43;10.90;73.50
78788;DHT22;68131;52.508;5.502;2023-04-29T04:47:19;10.90;73.50
78788;DHT22;68131;52.508;5.502;2023-04-29T04:49:55;10.90;73.50
78788;DHT22;68131;52.508;5.502;2023-04-29T04:52:26;10.90;73.60
78788;DHT22;68131;52.508;5.502;2023-04-29T04:55:23;11.00;73.70
78788;DHT22;68131;52.508;5.502;2023-04-29T04:57:52;11.00;73.40
78788;DHT22;68131;52.508;5.502;2023-04-29T05:00:24;11.00;73.40
78788;DHT22;68131;52.508;5.502;2023-04-29T05:02:53;11.10;73.20
78788;DHT22;68131;52.508;5.502;2023-04-29T05:05:23;11.00;73.10
78788;DHT22;68131;52.508;5.502;2023-04-29T05:07:52;11.00;73.20
78788;DHT22;68131;52.508;5.502;2023-04-29T05:10:28;11.00;73.30
78788;DHT22;68131;52.508;5.502;2023-04-29T05:13:00;11.10;73.40
78788;DHT22;68131;52.508;5.502;2023-04-29T05:15:32;11.10;73.40
78788;DHT22;68131;52.508;5.502;2023-04-29T05:18:04;11.10;73.50
78788;DHT22;68131;52.508;5.502;2023-04-29T05:20:33;11.10;73.40
78788;DHT22;68131;52.508;5.502;2023-04-29T05:23:02;11.10;73.30
78788;DHT22;68131;52.508;5.502;2023-04-29T05:25:36;11.10;73.10
78788;DHT22;68131;52.508;5.502;2023-04-29T05:28:06;11.10;73.00
78788;DHT22;68131;52.508;5.502;2023-04-29T05:30:41;11.10;73.10
78788;DHT22;68131;52.508;5.502;2023-04-29T05:33:10;11.20;73.10
78788;DHT22;68131;52.508;5.502;2023-04-29T05:35:39;11.20;72.90
78788;DHT22;68131;52.508;5.502;2023-04-29T05:38:09;11.20;72.80
78788;DHT22;68131;52.508;5.502;2023-04-29T05:40:40;11.20;72.90
78788;DHT22;68131;52.508;5.502;2023-04-29T05:43:24;11.20;72.70
78788;DHT22;68131;52.508;5.502;2023-04-29T05:45:57;11.20;72.70
78788;DHT22;68131;52.508;5.502;2023-04-29T05:48:26;11.30;72.40
78788;DHT22;68131;52.508;5.502;2023-04-29T05:50:56;11.30;72.20
78788;DHT22;68131;52.508;5.502;2023-04-29T05:53:26;11.40;72.30
78788;DHT22;68131;52.508;5.502;2023-04-29T05:55:55;11.50;72.10
78788;DHT22;68131;52.508;5.502;2023-04-29T05:58:24;11.60;71.60
78788;DHT22;68131;52.508;5.502;2023-04-29T06:00:53;11.70;71.50
78788;DHT22;68131;52.508;5.502;2023-04-29T06:03:27;11.80;71.30
78788;DHT22;68131;52.508;5.502;2023-04-29T06:06:16;12.00;70.70
78788;DHT22;68131;52.508;5.502;2023-04-29T06:09:00;12.20;70.20
78788;DHT22;68131;52.508;5.502;2023-04-29T06:11:30;12.70;69.80
78788;DHT22;68131;52.508;5.502;2023-04-29T06:14:01;13.00;68.30
78788;DHT22;68131;52.508;5.502;2023-04-29T06:16:31;13.20;67.80
78788;DHT22;68131;52.508;5.502;2023-04-29T06:19:02;13.40;67.30
78788;DHT22;68131;52.508;5.502;2023-04-29T06:21:32;13.30;66.90
78788;DHT22;68131;52.508;5.502;2023-04-29T06:24:01;13.20;66.70
78788;DHT22;68131;52.508;5.502;2023-04-29T06:26:30;13.00;67.00
78788;DHT22;68131;52.508;5.502;2023-04-29T06:28:59;12.90;67.30
78788;DHT22;68131;52.508;5.502;2023-04-29T06:31:28;12.80;67.40
78788;DHT22;68131;52.508;5.502;2023-04-29T06:34:04;12.90;67.70
78788;DHT22;68131;52.508;5.502;2023-04-29T06:36:38;12.90;67.20
78788;DHT22;68131;52.508;5.502;2023-04-29T06:39:31;13.00;67.50
78788;DHT22;68131;52.508;5.502;2023-04-29T06:42:14;13.30;67.80
78788;DHT22;68131;52.508;5.502;2023-04-29T06:45:02;13.70;66.80
78788;DHT22;68131;52.508;5.502;2023-04-29T06:47:55;14.10;66.00
78788;DHT22;68131;52.508;5.502;2023-04-29T06:50:39;14.40;64.70
78788;DHT22;68131;52.508;5.502;2023-04-29T06:53:16;14.30;65.20
78788;DHT22;68131;52.508;5.502;2023-04-29T06:55:45;14.60;65.00
78788;DHT22;68131;52.508;5.502;2023-04-29T06:58:15;14.60;64.60
78788;DHT22;68131;52.508;5.502;2023-04-29T07:00:45;14.80;64.70
78788;DHT22;68131;52.508;5.502;2023-04-29T07:03:15;14.90;63.90
78788;DHT22;68131;52.508;5.502;2023-04-29T07:05:47;14.80;63.10
78788;DHT22;68131;52.508;5.502;2023-04-29T07:08:16;14.80;63.50
78788;DHT22;68131;52.508;5.502;2023-04-29T07:10:53;14.80;62.90
78788;DHT22;68131;52.508;5.502;2023-04-29T07:13:23;14.80;63.30
78788;DHT22;68131;52.508;5.502;2023-04-29T07:15:52;14.90;63.10
78788;DHT22;68131;52.508;5.502;2023-04-29T07:18:21;15.00;62.80
78788;DHT22;68131;52.508;5.502;2023-04-29T07:20:53;15.20;62.70
78788;DHT22;68131;52.508;5.502;2023-04-29T07:23:22;15.50;62.20
78788;DHT22;68131;52.508;5.502;2023-04-29T07:25:52;15.60;61.70
78788;DHT22;68131;52.508;5.502;2023-04-29T07:28:21;15.70;61.30
78788;DHT22;68131;52.508;5.502;2023-04-29T07:30:52;15.90;61.10
78788;DHT22;68131;52.508;5.502;2023-04-29T07:33:21;15.90;60.70
78788;DHT22;68131;52.508;5.502;2023-04-29T07:35:53;15.80;60.40
78788;DHT22;68131;52.508;5.502;2023-04-29T07:38:22;15.90;60.40
78788;DHT22;68131;52.508;5.502;2023-04-29T07:40:51;15.70;60.00
78788;DHT22;68131;52.508;5.502;2023-04-29T07:43:24;15.50;61.00
78788;DHT22;68131;52.508;5.502;2023-04-29T07:45:53;15.60;60.40
78788;DHT22;68131;52.508;5.502;2023-04-29T07:48:22;15.50;60.50
78788;DHT22;68131;52.508;5.502;2023-04-29T07:50:54;15.50;61.10
78788;DHT22;68131;52.508;5.502;2023-04-29T07:53:23;15.70;60.80
78788;DHT22;68131;52.508;5.502;2023-04-29T07:55:52;15.80;59.70
78788;DHT22;68131;52.508;5.502;2023-04-29T07:58:23;15.60;60.70
78788;DHT22;68131;52.508;5.502;2023-04-29T08:00:53;15.50;60.70
78788;DHT22;68131;52.508;5.502;2023-04-29T08:03:22;15.60;60.70
78788;DHT22;68131;52.508;5.502;2023-04-29T08:05:54;15.60;60.80
78788;DHT22;68131;52.508;5.502;2023-04-29T08:08:23;15.80;60.30
78788;DHT22;68131;52.508;5.502;2023-04-29T08:10:52;15.80;59.40
78788;DHT22;68131;52.508;5.502;2023-04-29T08:13:21;15.50;60.30
78788;DHT22;68131;52.508;5.502;2023-04-29T08:15:50;15.60;60.40
78788;DHT22;68131;52.508;5.502;2023-04-29T08:18:20;15.80;60.30
78788;DHT22;68131;52.508;5.502;2023-04-29T08:20:49;16.00;59.10
78788;DHT22;68131;52.508;5.502;2023-04-29T08:23:20;15.70;59.30
78788;DHT22;68131;52.508;5.502;2023-04-29T08:25:49;15.50;59.60
78788;DHT22;68131;52.508;5.502;2023-04-29T08:28:21;15.30;59.80
78788;DHT22;68131;52.508;5.502;2023-04-29T08:30:50;15.20;60.90
78788;DHT22;68131;52.508;5.502;2023-04-29T08:33:19;15.50;60.60
78788;DHT22;68131;52.508;5.502;2023-04-29T08:35:48;15.80;59.70
78788;DHT22;68131;52.508;5.502;2023-04-29T08:38:27;16.10;59.50
78788;DHT22;68131;52.508;5.502;2023-04-29T08:40:57;16.20;58.90
78788;DHT22;68131;52.508;5.502;2023-04-29T08:43:26;16.00;58.40
78788;DHT22;68131;52.508;5.502;2023-04-29T08:45:57;15.80;59.10
78788;DHT22;68131;52.508;5.502;2023-04-29T08:48:26;15.80;59.20
78788;DHT22;68131;52.508;5.502;2023-04-29T08:50:56;15.80;58.70
78788;DHT22;68131;52.508;5.502;2023-04-29T08:53:30;15.90;58.90
78788;DHT22;68131;52.508;5.502;2023-04-29T08:56:03;16.10;58.00
78788;DHT22;68131;52.508;5.502;2023-04-29T08:58:39;16.20;58.10
78788;DHT22;68131;52.508;5.502;2023-04-29T09:01:09;16.40;57.80
78788;DHT22;68131;52.508;5.502;2023-04-29T09:03:43;16.60;57.90
78788;DHT22;68131;52.508;5.502;2023-04-29T09:06:14;16.70;57.50
78788;DHT22;68131;52.508;5.502;2023-04-29T09:08:47;16.70;57.10
78788;DHT22;68131;52.508;5.502;2023-04-29T09:11:16;16.60;57.60
78788;DHT22;68131;52.508;5.502;2023-04-29T09:13:46;16.40;58.20
78788;DHT22;68131;52.508;5.502;2023-04-29T09:16:15;16.40;57.70
78788;DHT22;68131;52.508;5.502;2023-04-29T09:18:45;16.30;57.80
78788;DHT22;68131;52.508;5.502;2023-04-29T09:21:17;16.30;58.30
78788;DHT22;68131;52.508;5.502;2023-04-29T09:23:51;16.40;58.30
78788;DHT22;68131;52.508;5.502;2023-04-29T09:26:20;16.70;58.10
78788;DHT22;68131;52.508;5.502;2023-04-29T09:29:05;17.00;57.70
78788;DHT22;68131;52.508;5.502;2023-04-29T09:31:35;17.10;56.80
78788;DHT22;68131;52.508;5.502;2023-04-29T09:34:05;17.10;56.90
78788;DHT22;68131;52.508;5.502;2023-04-29T09:36:39;17.00;56.30
78788;DHT22;68131;52.508;5.502;2023-04-29T09:39:15;16.90;56.30
78788;DHT22;68131;52.508;5.502;2023-04-29T09:41:58;16.60;56.40
78788;DHT22;68131;52.508;5.502;2023-04-29T09:44:29;16.00;58.10
78788;DHT22;68131;52.508;5.502;2023-04-29T09:47:02;15.90;59.00
78788;DHT22;68131;52.508;5.502;2023-04-29T09:49:32;16.00;59.00
78788;DHT22;68131;52.508;5.502;2023-04-29T09:52:05;16.00;58.40
78788;DHT22;68131;52.508;5.502;2023-04-29T09:54:39;16.00;58.40
78788;DHT22;68131;52.508;5.502;2023-04-29T09:57:09;16.00;57.80
78788;DHT22;68131;52.508;5.502;2023-04-29T09:59:40;16.00;57.40
78788;DHT22;68131;52.508;5.502;2023-04-29T10:02:13;16.00;57.20
78788;DHT22;68131;52.508;5.502;2023-04-29T10:04:45;15.80;57.20
78788;DHT22;68131;52.508;5.502;2023-04-29T10:07:15;15.70;57.80
78788;DHT22;68131;52.508;5.502;2023-04-29T10:09:47;15.70;58.40
78788;DHT22;68131;52.508;5.502;2023-04-29T10:12:18;15.80;58.50
78788;DHT22;68131;52.508;5.502;2023-04-29T10:14:52;15.90;58.60
78788;DHT22;68131;52.508;5.502;2023-04-29T10:17:26;16.00;57.60
78788;DHT22;68131;52.508;5.502;2023-04-29T10:20:02;15.90;57.20
78788;DHT22;68131;52.508;5.502;2023-04-29T10:22:39;15.80;57.80
78788;DHT22;68131;52.508;5.502;2023-04-29T10:25:15;16.00;58.00
78788;DHT22;68131;52.508;5.502;2023-04-29T10:27:45;16.20;57.40
78788;DHT22;68131;52.508;5.502;2023-04-29T10:30:17;16.00;56.50
78788;DHT22;68131;52.508;5.502;2023-04-29T10:32:48;15.70;57.30
78788;DHT22;68131;52.508;5.502;2023-04-29T10:35:18;15.80;57.60
78788;DHT22;68131;52.508;5.502;2023-04-29T10:37:50;15.70;57.50
78788;DHT22;68131;52.508;5.502;2023-04-29T10:40:28;15.80;57.30
78788;DHT22;68131;52.508;5.502;2023-04-29T10:42:58;15.70;58.30
78788;DHT22;68131;52.508;5.502;2023-04-29T10:45:28;15.90;58.50
78788;DHT22;68131;52.508;5.502;2023-04-29T10:48:10;16.10;58.10
78788;DHT22;68131;52.508;5.502;2023-04-29T10:53:26;16.50;57.20
78788;DHT22;68131;52.508;5.502;2023-04-29T10:56:03;16.50;56.80
78788;DHT22;68131;52.508;5.502;2023-04-29T10:58:35;16.40;56.10
78788;DHT22;68131;52.508;5.502;2023-04-29T11:01:04;16.10;56.30
78788;DHT22;68131;52.508;5.502;2023-04-29T11:03:52;15.80;57.30
78788;DHT22;68131;52.508;5.502;2023-04-29T11:06:24;15.80;57.00
78788;DHT22;68131;52.508;5.502;2023-04-29T11:09:01;15.70;57.40
78788;DHT22;68131;52.508;5.502;2023-04-29T11:11:44;15.80;57.80
78788;DHT22;68131;52.508;5.502;2023-04-29T11:14:15;15.90;57.00
78788;DHT22;68131;52.508;5.502;2023-04-29T11:16:51;16.00;57.30
78788;DHT22;68131;52.508;5.502;2023-04-29T11:19:23;16.00;56.50
78788;DHT22;68131;52.508;5.502;2023-04-29T11:22:07;16.10;57.00
78788;DHT22;68131;52.508;5.502;2023-04-29T11:24:48;16.20;57.20
78788;DHT22;68131;52.508;5.502;2023-04-29T11:27:20;16.30;56.90
78788;DHT22;68131;52.508;5.502;2023-04-29T11:29:51;16.40;56.60
78788;DHT22;68131;52.508;5.502;2023-04-29T11:32:23;16.20;56.40
78788;DHT22;68131;52.508;5.502;2023-04-29T11:34:52;15.90;57.40
78788;DHT22;68131;52.508;5.502;2023-04-29T11:37:24;16.00;57.50
78788;DHT22;68131;52.508;5.502;2023-04-29T11:39:58;16.00;57.20
78788;DHT22;68131;52.508;5.502;2023-04-29T11:42:33;16.00;56.80
78788;DHT22;68131;52.508;5.502;2023-04-29T11:45:03;16.00;56.30
78788;DHT22;68131;52.508;5.502;2023-04-29T11:47:32;15.80;56.50
78788;DHT22;68131;52.508;5.502;2023-04-29T11:50:03;15.80;56.70
78788;DHT22;68131;52.508;5.502;2023-04-29T11:52:34;15.90;57.30
78788;DHT22;68131;52.508;5.502;2023-04-29T11:55:05;16.00;57.70
78788;DHT22;68131;52.508;5.502;2023-04-29T11:57:37;16.20;57.60
78788;DHT22;68131;52.508;5.502;2023-04-29T12:00:08;16.30;56.90
78788;DHT22;68131;52.508;5.502;2023-04-29T12:02:38;16.40;56.90
78788;DHT22;68131;52.508;5.502;2023-04-29T12:05:08;16.40;56.80
78788;DHT22;68131;52.508;5.502;2023-04-29T12:07:38;16.40;56.80
78788;DHT22;68131;52.508;5.502;2023-04-29T12:10:08;16.30;57.10
78788;DHT22;68131;52.508;5.502;2023-04-29T12:12:40;16.30;56.90
78788;DHT22;68131;52.508;5.502;2023-04-29T12:15:11;16.30;57.30
78788;DHT22;68131;52.508;5.502;2023-04-29T12:17:41;16.30;57.10
78788;DHT22;68131;52.508;5.502;2023-04-29T12:20:12;16.30;56.70
78788;DHT22;68131;52.508;5.502;2023-04-29T12:22:41;16.20;56.80
78788;DHT22;68131;52.508;5.502;2023-04-29T12:25:11;16.10;57.30
78788;DHT22;68131;52.508;5.502;2023-04-29T12:27:43;16.20;57.60
78788;DHT22;68131;52.508;5.502;2023-04-29T12:30:13;16.30;57.10
78788;DHT22;68131;52.508;5.502;2023-04-29T12:32:43;16.30;56.20
78788;DHT22;68131;52.508;5.502;2023-04-29T12:35:14;16.20;56.70
78788;DHT22;68131;52.508;5.502;2023-04-29T12:37:47;16.20;57.00
78788;DHT22;68131;52.508;5.502;2023-04-29T12:40:16;16.20;57.00
78788;DHT22;68131;52.508;5.502;2023-04-29T12:42:48;16.30;56.50
78788;DHT22;68131;52.508;5.502;2023-04-29T12:45:28;16.30;56.60
78788;DHT22;68131;52.508;5.502;2023-04-29T12:47:58;16.30;56.90
78788;DHT22;68131;52.508;5.502;2023-04-29T12:50:29;16.30;56.50
78788;DHT22;68131;52.508;5.502;2023-04-29T12:53:00;16.20;56.90
78788;DHT22;68131;52.508;5.502;2023-04-29T12:55:31;16.30;57.10
78788;DHT22;68131;52.508;5.502;2023-04-29T12:58:03;16.50;57.00
78788;DHT22;68131;52.508;5.502;2023-04-29T13:00:34;16.50;56.60
78788;DHT22;68131;52.508;5.502;2023-04-29T13:03:03;16.60;56.20
78788;DHT22;68131;52.508;5.502;2023-04-29T13:05:32;16.60;55.90
78788;DHT22;68131;52.508;5.502;2023-04-29T13:08:02;16.50;55.70
78788;DHT22;68131;52.508;5.502;2023-04-29T13:10:32;16.40;55.90
78788;DHT22;68131;52.508;5.502;2023-04-29T13:13:04;16.40;55.80
78788;DHT22;68131;52.508;5.502;2023-04-29T13:15:35;16.30;56.00
78788;DHT22;68131;52.508;5.502;2023-04-29T13:18:04;16.30;56.00
78788;DHT22;68131;52.508;5.502;2023-04-29T13:20:33;16.10;55.70
78788;DHT22;68131;52.508;5.502;2023-04-29T13:23:03;16.10;56.00
78788;DHT22;68131;52.508;5.502;2023-04-29T13:25:32;16.00;55.20
78788;DHT22;68131;52.508;5.502;2023-04-29T13:28:03;15.80;55.80
78788;DHT22;68131;52.508;5.502;2023-04-29T13:30:33;15.60;55.80
78788;DHT22;68131;52.508;5.502;2023-04-29T13:33:02;15.40;55.80
78788;DHT22;68131;52.508;5.502;2023-04-29T13:35:31;15.50;56.30
78788;DHT22;68131;52.508;5.502;2023-04-29T13:38:01;15.60;56.30
78788;DHT22;68131;52.508;5.502;2023-04-29T13:40:30;15.80;55.90
78788;DHT22;68131;52.508;5.502;2023-04-29T13:42:59;15.90;54.60
78788;DHT22;68131;52.508;5.502;2023-04-29T13:45:31;15.90;54.80
78788;DHT22;68131;52.508;5.502;2023-04-29T13:48:01;15.90;54.80
78788;DHT22;68131;52.508;5.502;2023-04-29T13:50:30;15.90;54.60
78788;DHT22;68131;52.508;5.502;2023-04-29T13:52:59;15.90;55.20
78788;DHT22;68131;52.508;5.502;2023-04-29T13:55:28;15.90;54.90
78788;DHT22;68131;52.508;5.502;2023-04-29T13:57:59;15.80;55.00
78788;DHT22;68131;52.508;5.502;2023-04-29T14:00:31;15.90;55.40
78788;DHT22;68131;52.508;5.502;2023-04-29T14:03:00;15.90;55.90
78788;DHT22;68131;52.508;5.502;2023-04-29T14:05:29;16.00;55.90
78788;DHT22;68131;52.508;5.502;2023-04-29T14:07:58;16.00;54.60
78788;DHT22;68131;52.508;5.502;2023-04-29T14:10:27;15.90;54.40
78788;DHT22;68131;52.508;5.502;2023-04-29T14:12:56;15.80;54.70
78788;DHT22;68131;52.508;5.502;2023-04-29T14:15:26;15.80;54.50
78788;DHT22;68131;52.508;5.502;2023-04-29T14:17:58;15.90;54.90
78788;DHT22;68131;52.508;5.502;2023-04-29T14:20:27;15.90;54.90
78788;DHT22;68131;52.508;5.502;2023-04-29T14:22:56;15.90;54.40
78788;DHT22;68131;52.508;5.502;2023-04-29T14:25:25;16.00;54.00
78788;DHT22;68131;52.508;5.502;2023-04-29T14:27:55;16.10;53.30
78788;DHT22;68131;52.508;5.502;2023-04-29T14:30:24;16.10;53.40
78788;DHT22;68131;52.508;5.502;2023-04-29T14:32:53;16.10;53.60
78788;DHT22;68131;52.508;5.502;2023-04-29T14:35:25;16.10;53.60
78788;DHT22;68131;52.508;5.502;2023-04-29T14:37:54;16.20;53.10
78788;DHT22;68131;52.508;5.502;2023-04-29T14:40:23;16.00;52.10
78788;DHT22;68131;52.508;5.502;2023-04-29T14:42:52;15.80;52.70
78788;DHT22;68131;52.508;5.502;2023-04-29T14:45:21;15.70;52.60
78788;DHT22;68131;52.508;5.502;2023-04-29T14:47:50;15.70;51.50
78788;DHT22;68131;52.508;5.502;2023-04-29T14:50:19;15.60;51.80
78788;DHT22;68131;52.508;5.502;2023-04-29T14:52:52;15.60;51.70
78788;DHT22;68131;52.508;5.502;2023-04-29T14:55:22;15.80;50.90
78788;DHT22;68131;52.508;5.502;2023-04-29T14:57:52;15.80;50.00
78788;DHT22;68131;52.508;5.502;2023-04-29T15:00:21;15.90;49.90
78788;DHT22;68131;52.508;5.502;2023-04-29T15:02:50;16.00;48.50
78788;DHT22;68131;52.508;5.502;2023-04-29T15:05:21;16.00;48.00
78788;DHT22;68131;52.508;5.502;2023-04-29T15:07:53;15.90;48.10
78788;DHT22;68131;52.508;5.502;2023-04-29T15:10:23;15.90;47.80
78788;DHT22;68131;52.508;5.502;2023-04-29T15:12:52;15.90;48.20
78788;DHT22;68131;52.508;5.502;2023-04-29T15:15:22;15.90;48.70
78788;DHT22;68131;52.508;5.502;2023-04-29T15:17:51;15.90;48.70
78788;DHT22;68131;52.508;5.502;2023-04-29T15:20:20;15.90;49.00
78788;DHT22;68131;52.508;5.502;2023-04-29T15:22:49;15.80;49.50
78788;DHT22;68131;52.508;5.502;2023-04-29T15:25:21;15.80;50.30
78788;DHT22;68131;52.508;5.502;2023-04-29T15:27:50;15.70;50.80
78788;DHT22;68131;52.508;5.502;2023-04-29T15:30:19;15.60;50.30
78788;DHT22;68131;52.508;5.502;2023-04-29T15:32:48;15.50;51.00
78788;DHT22;68131;52.508;5.502;2023-04-29T15:35:17;15.50;50.80
78788;DHT22;68131;52.508;5.502;2023-04-29T15:37:46;15.30;51.00
78788;DHT22;68131;52.508;5.502;2023-04-29T15:40:16;15.10;49.90
78788;DHT22;68131;52.508;5.502;2023-04-29T15:42:47;15.00;50.00
78788;DHT22;68131;52.508;5.502;2023-04-29T15:45:17;14.90;49.40
78788;DHT22;68131;52.508;5.502;2023-04-29T15:47:46;14.80;50.00
78788;DHT22;68131;52.508;5.502;2023-04-29T15:50:15;14.90;50.60
78788;DHT22;68131;52.508;5.502;2023-04-29T15:52:44;14.90;50.90
78788;DHT22;68131;52.508;5.502;2023-04-29T15:55:13;15.00;51.40
78788;DHT22;68131;52.508;5.502;2023-04-29T15:57:42;15.10;51.10
78788;DHT22;68131;52.508;5.502;2023-04-29T16:00:14;15.10;50.90